Time;durP1;ratioP1;P1;durP2;ratioP2;P2;SDS_P1;SDS_P2;PMS_P1;PMS_P2;Temp;Humidity;BMP_temperature;BMP_pressure;BME280_temperature;BME280_humidity;BME280_pressure;Samples;Min_cycle;Max_cycle;Signal;HPM_P1;HPM_P2
2023/12/13 00:00:10;;;;;;;125.25;73.30;;;;;;;;;;5012549;28;20045;-86
2023/12/13 00:02:35;;;;;;;124.70;72.72;;;;;;;;;;5030308;28;20104;-86
2023/12/13 00:05:00;;;;;;;144.57;80.90;;;;;;;;;;5012155;28;20121;-86
2023/12/13 00:07:25;;;;;;;173.35;95.97;;;;;;;;;;5012806;28;20021;-86
2023/12/13 00:09:51;;;;;;;141.27;76.95;;;;;;;;;;5030531;28;20026;-86
2023/12/13 00:12:17;;;;;;;134.45;72.18;;;;;;;;;;5012503;28;20074;-86
2023/12/13 00:14:43;;;;;;;120.45;66.95;;;;;;;;;;5026988;28;20281;-87
2023/12/13 00:17:10;;;;;;;109.63;63.63;;;;;;;;;;5012337;28;20024;-86
2023/12/13 00:19:36;;;;;;;104.25;57.58;;;;;;;;;;5015301;28;20033;-86
2023/12/13 00:22:01;;;;;;;87.25;50.53;;;;;;;;;;5012205;28;20510;-86
2023/12/13 00:24:26;;;;;;;78.70;46.00;;;;;;;;;;5021948;28;20067;-86
2023/12/13 00:26:52;;;;;;;66.35;37.17;;;;;;;;;;4995849;28;20265;-86
2023/12/13 00:29:18;;;;;;;62.83;38.03;;;;;;;;;;5022836;28;20099;-86
2023/12/13 00:31:43;;;;;;;57.65;37.75;;;;;;;;;;5006779;28;20025;-86
2023/12/13 00:34:08;;;;;;;45.72;28.08;;;;;;;;;;5011436;28;20030;-86
2023/12/13 00:36:35;;;;;;;47.65;29.83;;;;;;;;;;5011744;28;20164;-86
2023/12/13 00:39:00;;;;;;;47.00;28.70;;;;;;;;;;5029669;28;20041;-86
2023/12/13 00:41:26;;;;;;;46.25;26.88;;;;;;;;;;5014861;28;20025;-86
2023/12/13 00:43:51;;;;;;;59.25;34.08;;;;;;;;;;5028284;28;20025;-86
2023/12/13 00:46:19;;;;;;;57.58;30.95;;;;;;;;;;5011797;28;20603;-86
2023/12/13 00:48:46;;;;;;;54.03;31.20;;;;;;;;;;5028139;28;20108;-86
2023/12/13 00:51:15;;;;;;;53.35;30.65;;;;;;;;;;5029478;28;20037;-85
2023/12/13 00:53:40;;;;;;;50.63;28.70;;;;;;;;;;5011607;28;20032;-85
2023/12/13 00:56:06;;;;;;;40.40;24.80;;;;;;;;;;5011372;28;20021;-86
2023/12/13 00:58:31;;;;;;;37.55;21.55;;;;;;;;;;5029573;28;20021;-86
2023/12/13 01:00:57;;;;;;;41.63;21.23;;;;;;;;;;4997703;28;20430;-86
2023/12/13 01:03:22;;;;;;;35.45;20.80;;;;;;;;;;5011622;28;20057;-86
2023/12/13 01:05:48;;;;;;;27.15;16.20;;;;;;;;;;5019626;28;20071;-86
2023/12/13 01:08:13;;;;;;;55.55;26.95;;;;;;;;;;5011384;28;20089;-86
2023/12/13 01:10:38;;;;;;;27.30;15.80;;;;;;;;;;5011599;28;20068;-86
2023/12/13 01:13:04;;;;;;;29.70;17.25;;;;;;;;;;5010469;28;20021;-86
2023/12/13 01:15:29;;;;;;;21.85;13.77;;;;;;;;;;5028886;28;20025;-86
2023/12/13 01:17:54;;;;;;;27.65;14.98;;;;;;;;;;5028729;28;20021;-86
2023/12/13 01:20:19;;;;;;;24.58;15.48;;;;;;;;;;5010487;28;20061;-86
2023/12/13 01:22:45;;;;;;;32.40;19.10;;;;;;;;;;5011306;28;20049;-86
2023/12/13 01:25:10;;;;;;;13.73;8.30;;;;;;;;;;5028521;28;20132;-86
2023/12/13 01:34:00;;;;;;;18.40;11.68;;;;;;;;;;5009212;28;20584;-86
2023/12/13 01:36:25;;;;;;;10.40;5.80;;;;;;;;;;5004215;28;20038;-86
2023/12/13 01:38:50;;;;;;;17.15;9.63;;;;;;;;;;5007314;28;20065;-86
2023/12/13 01:41:16;;;;;;;20.00;12.52;;;;;;;;;;4995947;28;20120;-86
2023/12/13 01:43:41;;;;;;;31.02;17.20;;;;;;;;;;5009040;28;20029;-86
2023/12/13 01:46:08;;;;;;;32.67;18.50;;;;;;;;;;4991308;28;20032;-84
2023/12/13 01:48:33;;;;;;;34.70;21.75;;;;;;;;;;5009049;28;20025;-84
2023/12/13 01:50:59;;;;;;;54.75;26.33;;;;;;;;;;4979531;28;20029;-84
2023/12/13 01:53:26;;;;;;;50.30;22.60;;;;;;;;;;5007671;28;20054;-84
2023/12/13 01:55:52;;;;;;;52.30;24.35;;;;;;;;;;5005649;28;20041;-87
2023/12/13 01:58:18;;;;;;;62.53;27.30;;;;;;;;;;5007524;28;20406;-86
2023/12/13 02:00:44;;;;;;;71.55;32.72;;;;;;;;;;5008865;28;20018;-86
2023/12/13 02:03:11;;;;;;;121.47;51.85;;;;;;;;;;4990834;28;20562;-85
2023/12/13 02:05:37;;;;;;;90.13;40.65;;;;;;;;;;4990564;28;20395;-86
2023/12/13 02:08:03;;;;;;;104.22;46.88;;;;;;;;;;5005099;28;20030;-86
2023/12/13 02:10:28;;;;;;;85.53;40.90;;;;;;;;;;5006959;28;20331;-86
2023/12/13 02:12:54;;;;;;;74.40;37.90;;;;;;;;;;4993570;28;20057;-86
2023/12/13 02:15:20;;;;;;;61.67;31.08;;;;;;;;;;4989802;28;20048;-85
2023/12/13 02:17:49;;;;;;;32.28;17.88;;;;;;;;;;5002460;28;20171;-86
2023/12/13 02:20:14;;;;;;;31.83;18.10;;;;;;;;;;5008025;28;20022;-86
2023/12/13 02:22:40;;;;;;;37.35;19.05;;;;;;;;;;4996060;28;20032;-86
2023/12/13 02:25:11;;;;;;;30.02;16.52;;;;;;;;;;5008166;28;20484;-85
2023/12/13 02:27:36;;;;;;;17.88;10.20;;;;;;;;;;5007955;28;20155;-86
2023/12/13 02:30:02;;;;;;;12.35;8.55;;;;;;;;;;4990341;28;20105;-86
2023/12/13 02:32:27;;;;;;;24.90;12.18;;;;;;;;;;5015757;28;20057;-86
2023/12/13 02:34:54;;;;;;;21.58;10.57;;;;;;;;;;5027657;28;20476;-86
2023/12/13 02:37:19;;;;;;;44.50;17.48;;;;;;;;;;5027867;28;20025;-85
2023/12/13 02:39:44;;;;;;;30.05;14.85;;;;;;;;;;5009332;28;20029;-86
2023/12/13 02:42:10;;;;;;;12.30;8.50;;;;;;;;;;5027570;28;20467;-85
2023/12/13 02:44:35;;;;;;;20.15;9.75;;;;;;;;;;5026064;28;20108;-85
2023/12/13 02:47:01;;;;;;;13.10;7.40;;;;;;;;;;5009244;28;20595;-86
2023/12/13 02:49:26;;;;;;;86.28;40.55;;;;;;;;;;5026031;28;20045;-85
2023/12/13 02:51:52;;;;;;;25.02;13.18;;;;;;;;;;5027424;28;20475;-85
2023/12/13 02:54:17;;;;;;;29.77;15.45;;;;;;;;;;5027182;28;20399;-86
2023/12/13 02:56:43;;;;;;;23.10;14.50;;;;;;;;;;5009353;28;20024;-85
2023/12/13 02:59:08;;;;;;;35.72;16.88;;;;;;;;;;5027105;28;20368;-86
2023/12/13 03:01:34;;;;;;;34.10;18.70;;;;;;;;;;5026956;28;20088;-85
2023/12/13 03:04:02;;;;;;;21.20;13.25;;;;;;;;;;5009993;28;20117;-84
2023/12/13 03:06:27;;;;;;;110.70;52.35;;;;;;;;;;5027242;28;20017;-84
2023/12/13 03:08:52;;;;;;;20.98;12.77;;;;;;;;;;5025839;28;20030;-84
2023/12/13 03:11:20;;;;;;;32.15;15.60;;;;;;;;;;5026797;28;20375;-84
2023/12/13 03:13:45;;;;;;;67.95;27.92;;;;;;;;;;5027028;28;20036;-84
2023/12/13 03:16:10;;;;;;;20.52;11.57;;;;;;;;;;5008957;28;20030;-84
2023/12/13 03:18:36;;;;;;;79.65;26.25;;;;;;;;;;5013509;28;20029;-84
2023/12/13 03:21:01;;;;;;;22.85;12.48;;;;;;;;;;5009391;28;20056;-85
2023/12/13 03:23:26;;;;;;;22.80;11.43;;;;;;;;;;5026974;28;20029;-85
2023/12/13 03:25:52;;;;;;;26.17;12.05;;;;;;;;;;5027141;28;20155;-85
2023/12/13 03:28:17;;;;;;;25.05;12.35;;;;;;;;;;5009175;28;20380;-84
2023/12/13 03:30:42;;;;;;;33.63;16.70;;;;;;;;;;5026986;28;20017;-84
2023/12/13 03:33:08;;;;;;;33.65;16.77;;;;;;;;;;5027517;28;20048;-84
2023/12/13 03:35:33;;;;;;;40.55;22.05;;;;;;;;;;5008726;28;20029;-84
2023/12/13 03:37:58;;;;;;;21.30;11.60;;;;;;;;;;5009362;28;20438;-85
2023/12/13 03:40:24;;;;;;;8.32;5.32;;;;;;;;;;5027225;28;20052;-84
2023/12/13 03:42:49;;;;;;;6.78;4.32;;;;;;;;;;5026641;28;20028;-84
2023/12/13 03:45:14;;;;;;;32.28;17.40;;;;;;;;;;5030888;28;20014;-85
2023/12/13 03:47:40;;;;;;;22.58;12.73;;;;;;;;;;5030279;28;20079;-84
2023/12/13 03:50:06;;;;;;;30.05;16.90;;;;;;;;;;5013010;28;20022;-85
2023/12/13 03:52:31;;;;;;;18.17;10.75;;;;;;;;;;5012545;28;20033;-85
2023/12/13 03:54:56;;;;;;;17.58;9.30;;;;;;;;;;5020424;28;20018;-84
2023/12/13 03:57:22;;;;;;;18.45;9.85;;;;;;;;;;5030131;28;20022;-85
2023/12/13 03:59:47;;;;;;;21.67;10.13;;;;;;;;;;5009380;28;20049;-85
2023/12/13 04:02:12;;;;;;;15.63;9.05;;;;;;;;;;5010536;28;20022;-84
2023/12/13 04:04:38;;;;;;;18.63;9.95;;;;;;;;;;5015464;28;20434;-84
2023/12/13 04:07:05;;;;;;;17.25;8.10;;;;;;;;;;5028545;28;20026;-84
2023/12/13 04:09:31;;;;;;;25.17;14.38;;;;;;;;;;5030463;28;20025;-84
2023/12/13 04:11:57;;;;;;;16.00;7.28;;;;;;;;;;5030112;28;20038;-85
2023/12/13 04:14:22;;;;;;;11.50;6.00;;;;;;;;;;5030020;28;20026;-84
2023/12/13 04:16:47;;;;;;;9.57;6.43;;;;;;;;;;5030140;28;20017;-86
2023/12/13 04:19:13;;;;;;;13.65;9.00;;;;;;;;;;5030092;28;20507;-84
2023/12/13 04:21:38;;;;;;;17.13;12.52;;;;;;;;;;5028144;28;20018;-86
2023/12/13 04:24:04;;;;;;;14.82;10.32;;;;;;;;;;4996245;28;20369;-86
2023/12/13 04:26:29;;;;;;;12.45;9.32;;;;;;;;;;5006640;28;20151;-86
2023/12/13 04:28:55;;;;;;;11.02;7.30;;;;;;;;;;5011954;28;20473;-84
2023/12/13 04:31:20;;;;;;;10.98;6.97;;;;;;;;;;5029018;28;20035;-85
2023/12/13 04:33:45;;;;;;;9.88;6.32;;;;;;;;;;5029599;28;20038;-84
2023/12/13 04:36:11;;;;;;;9.95;6.05;;;;;;;;;;5018375;28;20103;-83
2023/12/13 04:38:36;;;;;;;10.98;7.20;;;;;;;;;;5029145;28;20448;-83
2023/12/13 04:41:01;;;;;;;6.70;4.78;;;;;;;;;;5028775;28;20105;-84
2023/12/13 04:43:26;;;;;;;7.28;6.05;;;;;;;;;;5029479;28;20113;-83
2023/12/13 04:45:52;;;;;;;9.27;6.72;;;;;;;;;;5029088;28;20423;-83
2023/12/13 04:48:17;;;;;;;9.35;6.15;;;;;;;;;;5027866;28;20530;-83
2023/12/13 04:50:42;;;;;;;9.85;6.47;;;;;;;;;;5029753;28;20469;-84
2023/12/13 04:53:08;;;;;;;12.27;6.65;;;;;;;;;;5028909;28;20480;-85
2023/12/13 04:55:33;;;;;;;11.32;6.70;;;;;;;;;;5028332;28;20025;-84
2023/12/13 04:57:58;;;;;;;11.60;6.88;;;;;;;;;;5029129;28;20545;-84
2023/12/13 05:00:24;;;;;;;43.30;17.73;;;;;;;;;;5027946;28;20020;-85
2023/12/13 05:02:49;;;;;;;402.67;206.77;;;;;;;;;;5028975;28;20024;-84
2023/12/13 05:05:14;;;;;;;237.60;119.78;;;;;;;;;;5028565;28;20099;-85
2023/12/13 05:07:41;;;;;;;36.55;21.58;;;;;;;;;;5011553;28;20024;-84
2023/12/13 05:10:07;;;;;;;28.98;16.55;;;;;;;;;;5029593;28;20127;-84
2023/12/13 05:12:32;;;;;;;64.95;33.58;;;;;;;;;;5029127;28;20022;-83
2023/12/13 05:14:57;;;;;;;14.52;8.77;;;;;;;;;;5029356;28;20104;-84
2023/12/13 05:17:23;;;;;;;99.80;48.40;;;;;;;;;;5027952;28;20021;-84
2023/12/13 05:19:48;;;;;;;52.15;29.08;;;;;;;;;;5029201;28;20017;-84
2023/12/13 05:22:13;;;;;;;61.10;25.80;;;;;;;;;;5012897;28;20406;-84
2023/12/13 05:24:38;;;;;;;15.18;9.23;;;;;;;;;;5028538;28;20053;-84
2023/12/13 05:27:04;;;;;;;16.50;10.73;;;;;;;;;;5008563;28;20387;-84
2023/12/13 05:29:29;;;;;;;22.05;11.70;;;;;;;;;;5000288;28;20041;-84
2023/12/13 05:31:55;;;;;;;42.67;23.23;;;;;;;;;;5021635;28;20041;-84
2023/12/13 05:34:20;;;;;;;57.55;31.55;;;;;;;;;;5011043;28;20521;-85
2023/12/13 05:36:45;;;;;;;44.47;20.92;;;;;;;;;;5028346;28;20430;-85
2023/12/13 05:39:11;;;;;;;19.05;10.77;;;;;;;;;;5024113;28;20060;-84
2023/12/13 05:41:36;;;;;;;17.70;10.00;;;;;;;;;;5009834;28;20346;-84
2023/12/13 05:44:01;;;;;;;26.90;14.77;;;;;;;;;;5014617;28;20059;-83
2023/12/13 05:46:27;;;;;;;69.50;33.58;;;;;;;;;;5028684;28;20025;-84
2023/12/13 05:48:52;;;;;;;57.88;26.65;;;;;;;;;;5018866;28;20509;-84
2023/12/13 05:51:17;;;;;;;103.68;39.30;;;;;;;;;;5010832;28;20112;-84
2023/12/13 05:53:43;;;;;;;78.15;31.58;;;;;;;;;;5027832;28;20029;-85
2023/12/13 05:56:09;;;;;;;37.58;20.95;;;;;;;;;;5027045;28;20033;-85
2023/12/13 05:58:35;;;;;;;48.50;29.88;;;;;;;;;;5027975;28;20017;-84
2023/12/13 06:01:00;;;;;;;291.65;97.15;;;;;;;;;;5008831;28;20021;-85
2023/12/13 06:03:25;;;;;;;175.45;76.30;;;;;;;;;;5014349;28;20064;-85
2023/12/13 06:05:51;;;;;;;84.47;39.00;;;;;;;;;;5010055;28;20492;-85
2023/12/13 06:08:16;;;;;;;129.50;44.67;;;;;;;;;;5011362;28;20511;-84
2023/12/13 06:10:41;;;;;;;28.27;17.90;;;;;;;;;;5027557;28;20029;-84
2023/12/13 06:13:07;;;;;;;64.05;37.67;;;;;;;;;;5013345;28;20100;-84
2023/12/13 06:15:32;;;;;;;102.55;58.25;;;;;;;;;;5009923;28;20386;-85
2023/12/13 06:17:57;;;;;;;113.95;64.05;;;;;;;;;;5024858;28;20030;-84
2023/12/13 06:20:23;;;;;;;75.32;45.60;;;;;;;;;;5022294;28;20025;-84
2023/12/13 06:22:48;;;;;;;81.50;47.50;;;;;;;;;;5027429;28;20057;-84
2023/12/13 06:25:13;;;;;;;97.53;52.95;;;;;;;;;;4994414;28;20037;-83
2023/12/13 06:27:39;;;;;;;102.15;54.45;;;;;;;;;;5029547;28;20024;-85
2023/12/13 06:30:04;;;;;;;78.57;45.97;;;;;;;;;;5012418;28;20033;-85
2023/12/13 06:32:30;;;;;;;66.07;41.13;;;;;;;;;;5000213;28;20049;-84
2023/12/13 06:34:55;;;;;;;236.25;108.40;;;;;;;;;;5030129;28;20495;-84
2023/12/13 06:37:20;;;;;;;124.57;62.55;;;;;;;;;;5030089;28;20036;-85
2023/12/13 06:39:47;;;;;;;56.17;31.00;;;;;;;;;;5018005;28;20032;-84
2023/12/13 06:42:12;;;;;;;68.78;38.63;;;;;;;;;;5028919;28;20025;-85
2023/12/13 06:44:38;;;;;;;86.13;55.42;;;;;;;;;;5027495;28;20079;-84
2023/12/13 06:47:05;;;;;;;84.40;59.88;;;;;;;;;;5009242;28;20017;-84
2023/12/13 06:49:31;;;;;;;89.43;62.30;;;;;;;;;;5012370;28;20475;-85
2023/12/13 06:51:56;;;;;;;70.68;54.45;;;;;;;;;;5024841;28;20032;-85
2023/12/13 06:54:22;;;;;;;58.50;40.75;;;;;;;;;;5014191;28;20032;-88
2023/12/13 06:56:48;;;;;;;75.28;39.50;;;;;;;;;;5016970;28;20191;-86
2023/12/13 06:59:13;;;;;;;50.10;27.92;;;;;;;;;;5018807;28;20469;-86
2023/12/13 07:01:40;;;;;;;35.10;19.73;;;;;;;;;;5016204;28;20014;-86
2023/12/13 07:04:05;;;;;;;39.92;19.50;;;;;;;;;;5026461;28;20410;-86
2023/12/13 07:06:30;;;;;;;33.72;18.45;;;;;;;;;;5014457;28;20018;-86
2023/12/13 07:08:56;;;;;;;28.90;14.77;;;;;;;;;;5009656;28;20751;-86
2023/12/13 07:11:22;;;;;;;48.33;21.23;;;;;;;;;;5027660;28;20061;-86
2023/12/13 07:13:47;;;;;;;62.13;25.58;;;;;;;;;;5009691;28;20047;-87
2023/12/13 07:16:13;;;;;;;16.77;8.00;;;;;;;;;;5027008;28;20108;-86
2023/12/13 07:18:38;;;;;;;21.02;11.38;;;;;;;;;;5010757;28;20033;-86
2023/12/13 07:21:03;;;;;;;66.05;26.15;;;;;;;;;;5031230;28;20029;-86
2023/12/13 07:23:31;;;;;;;35.35;13.90;;;;;;;;;;5031103;28;20025;-86
2023/12/13 07:25:57;;;;;;;10.10;7.68;;;;;;;;;;5031541;28;20064;-86
2023/12/13 07:28:22;;;;;;;18.20;11.00;;;;;;;;;;5018591;28;20033;-86
2023/12/13 07:30:47;;;;;;;27.25;21.10;;;;;;;;;;5020819;28;20030;-86
2023/12/13 07:33:13;;;;;;;32.67;26.55;;;;;;;;;;5030243;28;20045;-86
2023/12/13 07:35:39;;;;;;;17.02;13.18;;;;;;;;;;5020998;28;20017;-87
2023/12/13 07:38:04;;;;;;;27.13;17.90;;;;;;;;;;5030870;28;20369;-85
2023/12/13 07:40:30;;;;;;;17.92;12.30;;;;;;;;;;5030541;28;20021;-84
2023/12/13 07:42:55;;;;;;;25.23;18.75;;;;;;;;;;5018029;28;20383;-85
2023/12/13 07:45:22;;;;;;;11.57;9.35;;;;;;;;;;5031200;28;20024;-83
2023/12/13 07:47:48;;;;;;;14.43;11.32;;;;;;;;;;5009425;28;20038;-83
2023/12/13 07:50:14;;;;;;;11.25;9.23;;;;;;;;;;5009910;28;20018;-85
2023/12/13 07:52:39;;;;;;;12.60;10.93;;;;;;;;;;5012697;28;20033;-84
2023/12/13 07:55:05;;;;;;;22.35;19.60;;;;;;;;;;5029994;28;20080;-85
2023/12/13 07:57:30;;;;;;;18.77;13.43;;;;;;;;;;5018912;28;20387;-84
2023/12/13 07:59:55;;;;;;;15.20;9.70;;;;;;;;;;4996796;28;20062;-84
2023/12/13 08:02:21;;;;;;;16.92;11.02;;;;;;;;;;4967968;28;20448;-84
2023/12/13 08:04:46;;;;;;;17.35;11.95;;;;;;;;;;4969111;28;20030;-85
2023/12/13 08:07:11;;;;;;;12.27;9.13;;;;;;;;;;4991059;28;20032;-85
2023/12/13 08:09:37;;;;;;;15.90;12.05;;;;;;;;;;4985524;28;20189;-84
2023/12/13 08:12:02;;;;;;;15.13;10.23;;;;;;;;;;4970412;28;20491;-85
2023/12/13 08:14:30;;;;;;;13.13;10.07;;;;;;;;;;4966953;28;20070;-85
2023/12/13 08:16:56;;;;;;;11.15;7.47;;;;;;;;;;4985730;28;20416;-84
2023/12/13 08:19:22;;;;;;;32.33;16.17;;;;;;;;;;4987977;28;20449;-84
2023/12/13 08:21:47;;;;;;;17.23;11.70;;;;;;;;;;4985495;28;20078;-85
2023/12/13 08:24:12;;;;;;;18.48;11.82;;;;;;;;;;4986216;28;20030;-84
2023/12/13 08:26:38;;;;;;;20.08;13.05;;;;;;;;;;4966095;28;20126;-84
2023/12/13 08:29:03;;;;;;;18.40;10.80;;;;;;;;;;4976790;28;20084;-84
2023/12/13 08:31:29;;;;;;;17.55;10.25;;;;;;;;;;5020302;28;20044;-85
2023/12/13 08:33:54;;;;;;;13.93;10.13;;;;;;;;;;5009659;28;20554;-85
2023/12/13 08:36:19;;;;;;;22.02;13.27;;;;;;;;;;5010110;28;20017;-84
2023/12/13 08:38:45;;;;;;;25.08;15.77;;;;;;;;;;5013052;28;20048;-84
2023/12/13 08:41:13;;;;;;;14.50;11.70;;;;;;;;;;5026358;28;20018;-85
2023/12/13 08:43:38;;;;;;;17.03;12.23;;;;;;;;;;5009775;28;20026;-84
2023/12/13 08:46:04;;;;;;;16.83;10.57;;;;;;;;;;5009019;28;20257;-84
2023/12/13 08:48:30;;;;;;;11.07;7.10;;;;;;;;;;5008481;28;20061;-85
2023/12/13 08:50:56;;;;;;;15.88;9.30;;;;;;;;;;5007515;28;20029;-84
2023/12/13 08:53:21;;;;;;;18.08;11.90;;;;;;;;;;4992457;28;20031;-85
2023/12/13 08:55:46;;;;;;;17.05;10.25;;;;;;;;;;5026483;28;20029;-85
2023/12/13 08:58:13;;;;;;;14.18;9.02;;;;;;;;;;5008627;28;20471;-85
2023/12/13 09:00:38;;;;;;;22.75;12.93;;;;;;;;;;5023489;28;20384;-87
2023/12/13 09:03:03;;;;;;;17.63;10.80;;;;;;;;;;5026799;28;20463;-85
2023/12/13 09:05:29;;;;;;;20.80;13.63;;;;;;;;;;5027403;28;20025;-85
2023/12/13 09:07:55;;;;;;;16.33;10.90;;;;;;;;;;5008832;28;20437;-84
2023/12/13 09:10:21;;;;;;;12.75;9.20;;;;;;;;;;5025831;28;20427;-84
2023/12/13 09:12:46;;;;;;;15.90;10.93;;;;;;;;;;5026152;28;20025;-85
2023/12/13 09:15:12;;;;;;;19.15;11.30;;;;;;;;;;5008875;28;20403;-85
2023/12/13 09:17:39;;;;;;;38.42;26.25;;;;;;;;;;4992771;28;20526;-84
2023/12/13 09:20:05;;;;;;;45.80;29.98;;;;;;;;;;5026806;28;20017;-84
2023/12/13 09:22:31;;;;;;;59.22;35.42;;;;;;;;;;5025766;28;20122;-84
2023/12/13 09:24:57;;;;;;;53.25;36.72;;;;;;;;;;5008767;28;20021;-85
2023/12/13 09:27:23;;;;;;;27.85;17.67;;;;;;;;;;5008450;28;20087;-84
2023/12/13 09:29:48;;;;;;;16.73;13.07;;;;;;;;;;5025246;28;20029;-84
2023/12/13 09:32:13;;;;;;;16.83;11.40;;;;;;;;;;5025410;28;20076;-84
2023/12/13 09:34:39;;;;;;;15.05;10.73;;;;;;;;;;5006139;28;20477;-85
2023/12/13 09:37:04;;;;;;;14.20;9.55;;;;;;;;;;5032536;28;20029;-85
2023/12/13 09:39:29;;;;;;;19.65;13.43;;;;;;;;;;5012278;28;20630;-85
2023/12/13 09:42:02;;;;;;;20.23;12.05;;;;;;;;;;5025361;28;20029;-85
2023/12/13 09:44:29;;;;;;;20.95;14.27;;;;;;;;;;5016252;28;20033;-84
2023/12/13 09:46:55;;;;;;;21.30;13.40;;;;;;;;;;5019386;28;20044;-86
2023/12/13 09:49:22;;;;;;;18.58;11.85;;;;;;;;;;5026154;28;20379;-86
2023/12/13 09:51:49;;;;;;;10.43;7.38;;;;;;;;;;5023685;28;20033;-85
2023/12/13 09:54:14;;;;;;;16.50;11.20;;;;;;;;;;5028696;28;20384;-86
2023/12/13 09:56:40;;;;;;;8.73;6.15;;;;;;;;;;5014412;28;20025;-87
2023/12/13 09:59:05;;;;;;;231.70;71.32;;;;;;;;;;5028335;28;20017;-86
2023/12/13 10:01:30;;;;;;;172.98;43.58;;;;;;;;;;5007399;28;20037;-86
2023/12/13 10:03:56;;;;;;;613.53;207.40;;;;;;;;;;4991023;28;20033;-88
2023/12/13 10:06:21;;;;;;;669.80;189.80;;;;;;;;;;4993153;28;20029;-86
2023/12/13 10:09:01;;;;;;;170.80;43.80;;;;;;;;;;5028681;28;20403;-87
2023/12/13 10:11:26;;;;;;;255.00;81.38;;;;;;;;;;5028538;28;20029;-86
2023/12/13 10:13:51;;;;;;;285.25;89.25;;;;;;;;;;5010227;28;20365;-86
2023/12/13 10:16:17;;;;;;;69.22;33.47;;;;;;;;;;5027613;28;20026;-87
2023/12/13 10:18:42;;;;;;;23.85;13.68;;;;;;;;;;5021266;28;20464;-88
2023/12/13 10:21:10;;;;;;;19.23;11.45;;;;;;;;;;5007923;28;20051;-86
2023/12/13 10:23:35;;;;;;;18.95;13.15;;;;;;;;;;5026240;28;20035;-87
2023/12/13 10:26:02;;;;;;;18.98;10.63;;;;;;;;;;5008281;28;20422;-87
2023/12/13 10:28:27;;;;;;;16.80;10.77;;;;;;;;;;5025489;28;20033;-86
2023/12/13 10:30:52;;;;;;;54.80;31.45;;;;;;;;;;5023892;28;20029;-86
2023/12/13 10:33:19;;;;;;;57.60;28.42;;;;;;;;;;4994767;28;20053;-88
2023/12/13 10:35:46;;;;;;;70.40;35.55;;;;;;;;;;5007069;28;20033;-87
2023/12/13 10:38:13;;;;;;;48.22;21.30;;;;;;;;;;5007728;28;20072;-85
2023/12/13 10:40:39;;;;;;;31.38;16.75;;;;;;;;;;5023793;28;20063;-87
2023/12/13 10:43:08;;;;;;;12.60;8.70;;;;;;;;;;5025644;28;20474;-87
2023/12/13 10:45:35;;;;;;;17.42;10.52;;;;;;;;;;5013965;28;20030;-88
2023/12/13 10:48:03;;;;;;;17.85;12.10;;;;;;;;;;5015039;28;20105;-87
2023/12/13 10:50:28;;;;;;;16.42;11.45;;;;;;;;;;5030264;28;20112;-88
2023/12/13 10:52:55;;;;;;;17.85;10.55;;;;;;;;;;5024082;28;20104;-86
2023/12/13 10:55:21;;;;;;;100.40;32.65;;;;;;;;;;5032802;28;20390;-86
2023/12/13 10:57:46;;;;;;;36.75;18.92;;;;;;;;;;4998535;28;20021;-86
2023/12/13 11:00:13;;;;;;;29.63;15.55;;;;;;;;;;5024380;28;20108;-86
2023/12/13 11:02:44;;;;;;;21.95;11.57;;;;;;;;;;5022549;28;20049;-86
2023/12/13 11:05:10;;;;;;;24.20;14.43;;;;;;;;;;5031843;28;20483;-86
2023/12/13 11:07:45;;;;;;;37.50;19.60;;;;;;;;;;5014274;28;20027;-85
2023/12/13 11:10:11;;;;;;;116.82;32.03;;;;;;;;;;5024199;28;20029;-86
2023/12/13 11:12:52;;;;;;;79.47;29.58;;;;;;;;;;5023651;28;20071;-86
2023/12/13 11:15:18;;;;;;;41.92;21.52;;;;;;;;;;5007383;28;20048;-86
2023/12/13 11:17:45;;;;;;;27.13;14.80;;;;;;;;;;5020524;28;20034;-86
2023/12/13 11:20:12;;;;;;;26.85;13.20;;;;;;;;;;4995590;28;20430;-86
2023/12/13 11:22:41;;;;;;;31.52;15.60;;;;;;;;;;5023615;28;20025;-85
2023/12/13 11:25:06;;;;;;;33.03;15.70;;;;;;;;;;5024755;28;20026;-86
2023/12/13 11:27:32;;;;;;;31.13;14.35;;;;;;;;;;5009258;28;20063;-86
2023/12/13 11:29:58;;;;;;;33.53;15.75;;;;;;;;;;5014605;28;20530;-85
2023/12/13 11:32:35;;;;;;;43.13;20.35;;;;;;;;;;5031530;28;20049;-86
2023/12/13 11:35:10;;;;;;;12.05;7.95;;;;;;;;;;5023065;28;20022;-87
2023/12/13 11:37:36;;;;;;;16.00;10.38;;;;;;;;;;5012538;28;20029;-86
2023/12/13 11:40:01;;;;;;;31.95;17.17;;;;;;;;;;5008166;28;20028;-87
2023/12/13 11:42:26;;;;;;;34.97;16.95;;;;;;;;;;5020055;28;20064;-87
2023/12/13 11:44:52;;;;;;;19.50;10.95;;;;;;;;;;5021806;28;20032;-87
2023/12/13 11:47:17;;;;;;;23.92;14.05;;;;;;;;;;5009438;28;20390;-86
2023/12/13 11:49:43;;;;;;;28.80;15.20;;;;;;;;;;5008774;28;20027;-87
2023/12/13 11:52:10;;;;;;;30.45;17.15;;;;;;;;;;5009371;28;20127;-87
2023/12/13 11:54:36;;;;;;;36.05;18.27;;;;;;;;;;5009360;28;20104;-86
2023/12/13 11:57:04;;;;;;;22.30;12.52;;;;;;;;;;5017130;28;20035;-87
2023/12/13 11:59:29;;;;;;;17.65;10.43;;;;;;;;;;5026942;28;20407;-86
2023/12/13 12:01:54;;;;;;;20.92;10.30;;;;;;;;;;5017409;28;20013;-85
2023/12/13 12:04:21;;;;;;;22.83;12.15;;;;;;;;;;5025256;28;20606;-86
2023/12/13 12:06:47;;;;;;;8.30;5.78;;;;;;;;;;5024443;28;20079;-85
2023/12/13 12:09:12;;;;;;;13.57;9.88;;;;;;;;;;5016760;28;20029;-85
2023/12/13 12:11:38;;;;;;;16.80;10.45;;;;;;;;;;5017214;28;20017;-85
2023/12/13 12:14:06;;;;;;;16.90;11.18;;;;;;;;;;5026775;28;20049;-85
2023/12/13 12:16:32;;;;;;;;;;;;;;;;;;4994878;28;20030;-85
2023/12/13 12:18:57;;;;;;;62.63;36.80;;;;;;;;;;5026920;28;19987;-85
2023/12/13 12:21:22;;;;;;;20.35;13.52;;;;;;;;;;5014694;28;20022;-86
2023/12/13 12:23:49;;;;;;;10.80;6.35;;;;;;;;;;5029891;28;20021;-86
2023/12/13 12:26:14;;;;;;;11.18;6.30;;;;;;;;;;5017907;28;20055;-85
2023/12/13 12:28:40;;;;;;;16.05;10.63;;;;;;;;;;5018506;28;20017;-87
2023/12/13 12:31:08;;;;;;;16.55;6.97;;;;;;;;;;5019955;28;20113;-85
2023/12/13 12:33:34;;;;;;;27.35;17.67;;;;;;;;;;5019876;28;20119;-86
2023/12/13 12:35:59;;;;;;;30.17;16.83;;;;;;;;;;5022296;28;20064;-86
2023/12/13 12:38:24;;;;;;;11.70;9.05;;;;;;;;;;5029714;28;20119;-85
2023/12/13 12:40:50;;;;;;;13.20;7.80;;;;;;;;;;5029543;28;20104;-86
2023/12/13 12:43:19;;;;;;;13.07;7.65;;;;;;;;;;5011896;28;20022;-85
2023/12/13 12:45:46;;;;;;;9.80;6.70;;;;;;;;;;5033403;28;20013;-86
2023/12/13 12:48:12;;;;;;;11.68;6.75;;;;;;;;;;5019656;28;20030;-85
2023/12/13 12:50:37;;;;;;;17.52;9.98;;;;;;;;;;5036343;28;20032;-85
2023/12/13 12:53:02;;;;;;;10.48;6.75;;;;;;;;;;5029134;28;20034;-86
2023/12/13 12:55:28;;;;;;;17.27;10.35;;;;;;;;;;5029259;28;20053;-85
2023/12/13 12:57:53;;;;;;;10.60;6.93;;;;;;;;;;5019233;28;20017;-85
2023/12/13 13:00:18;;;;;;;20.65;12.82;;;;;;;;;;5019005;28;20018;-85
2023/12/13 13:02:48;;;;;;;24.23;16.52;;;;;;;;;;5029046;28;20025;-84
2023/12/13 13:05:16;;;;;;;20.52;14.30;;;;;;;;;;5019440;28;20033;-84
2023/12/13 13:07:41;;;;;;;25.02;18.73;;;;;;;;;;5028935;28;20014;-85
2023/12/13 13:10:10;;;;;;;14.07;9.38;;;;;;;;;;5019442;28;20379;-84
2023/12/13 13:12:36;;;;;;;33.17;20.83;;;;;;;;;;5033427;28;20033;-84
2023/12/13 13:15:01;;;;;;;29.35;17.75;;;;;;;;;;5020226;28;20025;-84
2023/12/13 13:17:30;;;;;;;39.40;23.83;;;;;;;;;;5027910;28;20030;-84
2023/12/13 13:19:55;;;;;;;21.80;12.90;;;;;;;;;;5044520;28;20017;-84
2023/12/13 13:22:21;;;;;;;13.18;8.10;;;;;;;;;;5019876;28;20049;-85
2023/12/13 13:24:47;;;;;;;31.13;19.83;;;;;;;;;;5011354;28;20117;-85
2023/12/13 13:27:12;;;;;;;36.55;24.98;;;;;;;;;;5029135;28;20096;-84
2023/12/13 13:29:37;;;;;;;14.05;9.52;;;;;;;;;;5028796;28;20033;-84
2023/12/13 13:32:04;;;;;;;23.08;12.75;;;;;;;;;;5009706;28;20056;-85
2023/12/13 13:34:29;;;;;;;19.20;11.75;;;;;;;;;;4999262;28;20176;-85
2023/12/13 13:36:54;;;;;;;23.65;12.85;;;;;;;;;;5028020;28;20602;-84
2023/12/13 13:39:20;;;;;;;45.35;26.00;;;;;;;;;;5015878;28;20392;-84
2023/12/13 13:41:45;;;;;;;29.08;16.60;;;;;;;;;;5028386;28;20104;-84
2023/12/13 13:44:10;;;;;;;20.30;12.60;;;;;;;;;;5028115;28;20025;-84
2023/12/13 13:46:36;;;;;;;29.65;18.27;;;;;;;;;;5026770;28;20021;-84
2023/12/13 13:49:01;;;;;;;50.97;28.25;;;;;;;;;;5016119;28;20078;-84
2023/12/13 13:51:29;;;;;;;39.70;25.67;;;;;;;;;;5016568;28;20033;-84
2023/12/13 13:53:54;;;;;;;33.97;20.98;;;;;;;;;;5011153;28;20013;-84
2023/12/13 13:56:20;;;;;;;23.70;13.95;;;;;;;;;;5008245;28;20676;-84
2023/12/13 13:58:46;;;;;;;32.80;20.75;;;;;;;;;;5014274;28;20096;-84
2023/12/13 14:01:11;;;;;;;48.72;26.10;;;;;;;;;;5016124;28;20055;-84
2023/12/13 14:03:37;;;;;;;33.00;19.25;;;;;;;;;;5006191;28;20025;-84
2023/12/13 14:06:05;;;;;;;32.72;21.55;;;;;;;;;;5021784;28;20033;-84
2023/12/13 14:08:30;;;;;;;36.30;23.90;;;;;;;;;;5016487;28;20040;-84
2023/12/13 14:10:55;;;;;;;46.20;30.00;;;;;;;;;;5025857;28;20740;-84
2023/12/13 14:13:23;;;;;;;30.27;22.42;;;;;;;;;;5021087;28;20024;-84
2023/12/13 14:15:49;;;;;;;25.60;20.13;;;;;;;;;;5012973;28;20152;-84